Time;durP1;ratioP1;P1;durP2;ratioP2;P2;SDS_P1;SDS_P2;PMS_P1;PMS_P2;Temp;Humidity;BMP_temperature;BMP_pressure;BME280_temperature;BME280_humidity;BME280_pressure;Samples;Min_cycle;Max_cycle;Signal;HPM_P1;HPM_P2
2023/12/13 00:01:26;;;;;;;10.80;1.90;;;;;;;7.71;100.00;99372.28;5043670;28;20025;-91
2023/12/13 00:03:52;;;;;;;6.82;1.88;;;;;;;7.69;100.00;99381.59;5054095;28;20502;-91
2023/12/13 00:06:18;;;;;;;11.80;2.13;;;;;;;7.66;100.00;99376.44;5011114;28;20048;-91
2023/12/13 00:08:43;;;;;;;9.80;2.00;;;;;;;7.58;100.00;99382.59;5026126;28;20025;-91
2023/12/13 00:11:09;;;;;;;12.48;2.13;;;;;;;7.52;100.00;99373.09;5056544;28;20051;-88
2023/12/13 00:13:34;;;;;;;5.95;1.65;;;;;;;7.49;100.00;99367.06;5036759;28;20123;-89
2023/12/13 00:16:01;;;;;;;8.43;1.70;;;;;;;7.49;100.00;99369.78;5046014;28;20032;-88
2023/12/13 00:18:27;;;;;;;9.80;1.80;;;;;;;7.41;100.00;99366.91;5052179;28;20025;-88
2023/12/13 00:20:52;;;;;;;5.70;1.52;;;;;;;7.45;100.00;99368.38;5046597;28;20038;-88
2023/12/13 00:23:18;;;;;;;6.75;1.75;;;;;;;7.43;100.00;99371.22;5040670;28;20029;-88
2023/12/13 00:25:43;;;;;;;3.45;1.35;;;;;;;7.48;100.00;99362.63;5024486;28;20060;-88
2023/12/13 00:28:09;;;;;;;9.63;1.70;;;;;;;7.49;100.00;99370.69;5036490;28;20497;-88
2023/12/13 00:30:34;;;;;;;6.10;1.10;;;;;;;7.57;100.00;99374.56;5018338;28;20025;-88
2023/12/13 00:32:59;;;;;;;9.40;1.20;;;;;;;7.59;100.00;99369.81;5034774;28;20105;-87
2023/12/13 00:35:25;;;;;;;6.88;1.67;;;;;;;7.59;100.00;99375.28;5041590;28;20083;-89
2023/12/13 00:37:51;;;;;;;5.40;1.30;;;;;;;7.58;100.00;99379.88;5019025;28;20040;-88
2023/12/13 00:40:18;;;;;;;6.80;1.38;;;;;;;7.57;100.00;99374.56;5025284;28;20075;-87
2023/12/13 00:42:44;;;;;;;4.60;1.80;;;;;;;7.54;100.00;99379.28;5018462;28;20029;-88
2023/12/13 00:45:10;;;;;;;8.35;1.35;;;;;;;7.56;100.00;99376.44;5018994;28;20037;-88
2023/12/13 00:47:36;;;;;;;4.63;1.95;;;;;;;7.56;100.00;99376.44;5041432;28;20028;-88
2023/12/13 00:50:02;;;;;;;9.07;1.63;;;;;;;7.53;100.00;99377.56;5018465;28;20064;-89
2023/12/13 00:52:28;;;;;;;13.90;1.83;;;;;;;7.52;100.00;99375.81;5022129;28;20021;-89
2023/12/13 00:54:54;;;;;;;12.32;1.73;;;;;;;7.47;100.00;99372.66;5003125;28;20439;-89
2023/12/13 00:57:19;;;;;;;5.78;1.65;;;;;;;7.48;100.00;99371.66;5013841;28;20120;-89
2023/12/13 00:59:45;;;;;;;9.43;1.50;;;;;;;7.50;100.00;99372.38;5002433;28;20041;-89
2023/12/13 01:02:10;;;;;;;7.97;1.80;;;;;;;7.49;100.00;99372.50;5019186;28;20175;-89
2023/12/13 01:04:38;;;;;;;9.68;1.88;;;;;;;7.50;100.00;99366.94;5004208;28;20086;-89
2023/12/13 01:07:03;;;;;;;11.77;1.63;;;;;;;7.53;100.00;99368.53;5016599;28;20064;-89
2023/12/13 01:09:29;;;;;;;6.53;1.77;;;;;;;7.56;100.00;99362.81;4998807;28;20138;-89
2023/12/13 01:11:54;;;;;;;7.75;1.52;;;;;;;7.53;100.00;99366.66;4999385;28;20036;-88
2023/12/13 01:14:19;;;;;;;14.25;1.90;;;;;;;7.53;100.00;99363.94;5023051;28;20029;-88
2023/12/13 01:16:45;;;;;;;6.32;1.52;;;;;;;7.49;100.00;99362.50;5027048;28;20037;-88
2023/12/13 01:19:10;;;;;;;6.32;1.50;;;;;;;7.53;100.00;99361.22;5021928;28;20021;-89
2023/12/13 01:21:36;;;;;;;10.70;1.63;;;;;;;7.53;100.00;99361.22;5040165;28;20033;-91
2023/12/13 01:24:02;;;;;;;6.55;1.63;;;;;;;7.55;100.00;99353.75;5006666;28;20025;-91
2023/12/13 01:26:28;;;;;;;8.18;1.85;;;;;;;7.55;100.00;99358.34;5063859;28;20384;-91
2023/12/13 01:28:53;;;;;;;16.63;1.80;;;;;;;7.54;100.00;99364.78;5039518;28;20032;-91
2023/12/13 01:31:19;;;;;;;10.55;1.90;;;;;;;7.52;100.00;99359.47;5013956;28;20041;-91
2023/12/13 01:33:44;;;;;;;7.72;2.00;;;;;;;7.48;100.00;99363.50;5042160;28;20029;-89
2023/12/13 01:36:09;;;;;;;6.93;1.90;;;;;;;7.46;100.00;99361.91;5055077;28;20136;-91
2023/12/13 01:38:35;;;;;;;10.25;2.25;;;;;;;7.49;100.00;99362.50;5034963;28;20029;-91
2023/12/13 01:41:02;;;;;;;11.00;2.50;;;;;;;7.47;100.00;99353.59;5010410;28;20036;-91
2023/12/13 01:43:28;;;;;;;4.75;2.30;;;;;;;7.49;100.00;99361.63;5020663;28;20037;-91
2023/12/13 01:45:57;;;;;;;14.38;3.20;;;;;;;7.47;100.00;99364.47;5054511;28;20487;-91
2023/12/13 01:48:25;;;;;;;14.40;2.92;;;;;;;7.47;100.00;99356.31;5055807;28;20226;-91
2023/12/13 01:50:53;;;;;;;18.25;3.05;;;;;;;7.48;100.00;99363.50;5013947;28;20376;-91
2023/12/13 01:53:18;;;;;;;14.73;3.08;;;;;;;7.50;100.00;99357.91;5041573;28;20075;-91
2023/12/13 01:55:45;;;;;;;11.98;3.45;;;;;;;7.51;100.00;99363.22;5026336;28;20494;-91
2023/12/13 01:58:11;;;;;;;12.73;3.65;;;;;;;7.48;100.00;99368.09;5025866;28;20040;-91
2023/12/13 02:00:39;;;;;;;15.52;3.47;;;;;;;7.48;100.00;99363.50;5021517;28;20482;-91
2023/12/13 02:03:07;;;;;;;11.30;3.78;;;;;;;7.51;100.00;99363.22;5055964;28;20116;-91
2023/12/13 02:05:35;;;;;;;13.65;3.47;;;;;;;7.52;100.00;99359.47;5038726;28;20037;-91
2023/12/13 02:08:00;;;;;;;14.38;3.60;;;;;;;7.50;100.00;99361.47;5039650;28;20027;-92
2023/12/13 02:10:26;;;;;;;14.52;4.63;;;;;;;7.55;100.00;99359.19;5006834;28;20045;-91
2023/12/13 02:12:51;;;;;;;17.75;3.78;;;;;;;7.57;100.00;99355.50;5016771;28;20394;-92
2023/12/13 02:15:18;;;;;;;15.95;3.47;;;;;;;7.57;100.00;99364.50;5030493;28;20033;-91
2023/12/13 02:17:53;;;;;;;14.30;3.33;;;;;;;7.58;100.00;99358.06;5022898;28;20032;-91
2023/12/13 02:20:19;;;;;;;17.00;4.43;;;;;;;7.57;100.00;99361.78;5052670;28;20486;-91
2023/12/13 02:22:45;;;;;;;12.13;3.00;;;;;;;7.58;100.00;99358.06;5026008;28;20116;-92
2023/12/13 02:25:25;;;;;;;20.65;4.20;;;;;;;7.61;100.00;99357.81;5030176;28;20061;-91
2023/12/13 02:27:51;;;;;;;14.00;2.80;;;;;;;7.62;100.00;99364.94;5064775;28;20078;-91
2023/12/13 02:30:17;;;;;;;14.80;3.10;;;;;;;7.65;100.00;99351.06;5054749;28;20048;-90
2023/12/13 02:32:42;;;;;;;20.98;3.90;;;;;;;7.67;100.00;99356.38;5060196;28;20048;-90
2023/12/13 02:35:08;;;;;;;21.30;3.05;;;;;;;7.67;100.00;99350.91;5059922;28;20127;-91
2023/12/13 02:37:34;;;;;;;19.38;3.20;;;;;;;7.68;100.00;99347.19;5038394;28;20029;-91
2023/12/13 02:40:03;;;;;;;15.25;3.40;;;;;;;7.67;100.00;99343.63;5026538;28;20102;-91
2023/12/13 02:42:28;;;;;;;19.10;2.90;;;;;;;7.70;100.00;99350.63;5054625;28;20104;-90
2023/12/13 02:44:53;;;;;;;23.65;3.60;;;;;;;7.70;100.00;99342.47;5039265;28;20083;-91
2023/12/13 02:47:21;;;;;;;23.15;4.18;;;;;;;7.73;100.00;99342.19;5021553;28;20037;-91
2023/12/13 02:49:49;;;;;;;13.48;3.67;;;;;;;7.74;100.00;99349.38;5005990;28;20550;-92
2023/12/13 02:52:15;;;;;;;27.60;4.18;;;;;;;7.74;100.00;99338.47;5029923;28;20154;-90
2023/12/13 02:54:40;;;;;;;15.43;3.67;;;;;;;7.74;100.00;99338.47;5053821;28;20119;-92
2023/12/13 02:57:07;;;;;;;20.92;3.55;;;;;;;7.75;100.00;99342.03;5026523;28;20041;-92
2023/12/13 02:59:32;;;;;;;25.35;4.07;;;;;;;7.71;100.00;99352.38;5018959;28;20029;-92
2023/12/13 03:01:59;;;;;;;16.08;3.80;;;;;;;7.76;100.00;99338.34;5020907;28;20371;-92
2023/12/13 03:04:24;;;;;;;22.38;3.83;;;;;;;7.78;100.00;99334.44;5054132;28;20025;-93
2023/12/13 03:06:50;;;;;;;12.95;3.45;;;;;;;7.76;100.00;99352.81;5020757;28;20028;-93
2023/12/13 03:09:15;;;;;;;25.88;3.47;;;;;;;7.79;100.00;99352.53;5018545;28;20114;-92
2023/12/13 03:11:41;;;;;;;21.35;3.55;;;;;;;7.76;100.00;99343.78;5035224;28;20550;-92
2023/12/13 03:14:06;;;;;;;12.38;3.53;;;;;;;7.79;100.00;99338.03;5053995;28;20037;-92
2023/12/13 03:16:31;;;;;;;13.63;3.60;;;;;;;7.77;100.00;99334.59;5018271;28;20033;-92
2023/12/13 03:18:57;;;;;;;15.95;3.40;;;;;;;7.79;100.00;99332.56;5001180;28;20040;-91
2023/12/13 03:21:22;;;;;;;25.98;3.80;;;;;;;7.78;100.00;99331.72;5035250;28;20025;-92
2023/12/13 03:23:47;;;;;;;19.50;3.70;;;;;;;7.78;100.00;99336.31;5021786;28;20079;-92
2023/12/13 03:26:13;;;;;;;20.50;4.00;;;;;;;7.77;100.00;99337.31;5026188;28;20548;-92
2023/12/13 03:28:38;;;;;;;20.85;4.15;;;;;;;7.80;100.00;99334.31;5008668;28;20037;-92
2023/12/13 03:31:09;;;;;;;18.83;4.00;;;;;;;7.78;100.00;99331.72;5002763;28;20032;-92
2023/12/13 03:33:34;;;;;;;27.48;3.70;;;;;;;7.82;100.00;99332.28;5051334;28;20041;-92
2023/12/13 03:35:59;;;;;;;28.88;3.55;;;;;;;7.79;100.00;99335.31;4996933;28;20062;-91
2023/12/13 03:38:25;;;;;;;19.00;3.55;;;;;;;7.80;100.00;99335.16;4993591;28;20108;-92
2023/12/13 03:40:50;;;;;;;20.55;3.70;;;;;;;7.76;100.00;99327.44;4990909;28;20034;-92
2023/12/13 03:43:15;;;;;;;21.63;3.78;;;;;;;7.78;100.00;99329.00;5000969;28;20316;-92
2023/12/13 03:45:41;;;;;;;28.60;4.00;;;;;;;7.80;100.00;99331.59;5016925;28;20033;-92
2023/12/13 03:48:06;;;;;;;26.40;3.83;;;;;;;7.84;100.00;99325.72;5010701;28;20124;-92
2023/12/13 03:50:32;;;;;;;21.30;4.05;;;;;;;7.84;100.00;99316.69;4996210;28;20119;-89
2023/12/13 03:52:57;;;;;;;23.95;3.97;;;;;;;7.85;100.00;99321.97;5021950;28;20026;-89
2023/12/13 03:55:22;;;;;;;26.20;3.58;;;;;;;7.86;100.00;99323.69;4981851;28;20130;-89
2023/12/13 03:57:48;;;;;;;23.92;3.85;;;;;;;7.87;100.00;99317.25;5015565;28;20116;-89
2023/12/13 04:00:14;;;;;;;22.65;3.95;;;;;;;7.88;100.00;99321.69;4999102;28;20056;-89
2023/12/13 04:02:40;;;;;;;30.05;4.22;;;;;;;7.89;100.00;99312.53;5000037;28;20021;-90
2023/12/13 04:05:06;;;;;;;22.08;4.20;;;;;;;7.90;100.00;99322.44;5001587;28;20041;-89
2023/12/13 04:07:31;;;;;;;19.50;5.38;;;;;;;7.87;100.00;99311.81;4998602;28;20056;-89
2023/12/13 04:09:57;;;;;;;28.10;4.22;;;;;;;7.91;100.00;99317.84;5018344;28;20052;-88
2023/12/13 04:12:22;;;;;;;29.70;4.45;;;;;;;7.89;100.00;99317.97;5015727;28;20031;-89
2023/12/13 04:14:47;;;;;;;19.77;3.67;;;;;;;7.90;100.00;99307.91;4982819;28;20040;-88
2023/12/13 04:17:13;;;;;;;23.17;4.07;;;;;;;7.86;100.00;99304.63;4982000;28;20038;-88
2023/12/13 04:19:38;;;;;;;26.98;4.65;;;;;;;7.91;100.00;99306.94;5033513;28;20025;-89
2023/12/13 04:22:03;;;;;;;36.08;5.07;;;;;;;7.94;100.00;99312.09;4989186;28;20403;-89
2023/12/13 04:24:29;;;;;;;28.33;4.07;;;;;;;7.93;100.00;99317.69;4991968;28;20136;-88
2023/12/13 04:26:54;;;;;;;23.63;3.92;;;;;;;7.90;100.00;99307.91;5019354;28;20033;-89
2023/12/13 04:29:20;;;;;;;26.88;4.72;;;;;;;7.93;100.00;99318.53;4980599;28;20123;-89
2023/12/13 04:31:45;;;;;;;22.25;4.38;;;;;;;7.91;100.00;99315.97;5019113;28;20052;-89
2023/12/13 04:34:11;;;;;;;23.58;4.03;;;;;;;7.94;100.00;99309.38;5024296;28;20139;-89
2023/12/13 04:36:37;;;;;;;41.15;4.97;;;;;;;7.99;100.00;99306.22;5001139;28;20064;-88
2023/12/13 04:39:04;;;;;;;28.48;4.88;;;;;;;7.98;100.00;99304.50;5018725;28;20033;-88
2023/12/13 04:41:29;;;;;;;28.70;4.07;;;;;;;7.96;100.00;99307.34;5007626;28;20025;-88
2023/12/13 04:43:55;;;;;;;21.30;4.80;;;;;;;7.95;100.00;99300.16;5022342;28;20036;-89
2023/12/13 04:46:21;;;;;;;33.97;4.55;;;;;;;7.96;100.00;99311.97;5016466;28;20195;-89
2023/12/13 04:48:46;;;;;;;22.55;4.13;;;;;;;7.92;100.00;99305.94;5005137;28;20489;-89
2023/12/13 04:51:12;;;;;;;38.17;5.38;;;;;;;7.91;100.00;99304.19;5029873;28;20025;-89
2023/12/13 04:53:38;;;;;;;29.05;4.28;;;;;;;7.89;100.00;99293.44;5046309;28;20064;-88
2023/12/13 04:56:03;;;;;;;27.45;3.92;;;;;;;7.91;100.00;99298.75;5045498;28;20043;-88
2023/12/13 04:58:29;;;;;;;34.45;4.30;;;;;;;7.86;100.00;99296.44;5010283;28;20033;-88
2023/12/13 05:00:56;;;;;;;29.60;4.15;;;;;;;7.85;100.00;99300.16;5008890;28;20029;-87
2023/12/13 05:03:22;;;;;;;28.63;5.40;;;;;;;7.82;100.00;99300.47;5023089;28;20082;-89
2023/12/13 05:05:48;;;;;;;29.02;4.72;;;;;;;7.78;100.00;99296.31;5037599;28;20028;-88
2023/12/13 05:08:13;;;;;;;25.00;4.38;;;;;;;7.77;100.00;99294.56;5032705;28;20119;-89
2023/12/13 05:10:43;;;;;;;30.25;5.60;;;;;;;7.77;100.00;99297.28;5021752;28;20105;-88
2023/12/13 05:13:09;;;;;;;22.92;4.47;;;;;;;7.78;100.00;99293.59;5052895;28;20029;-88
2023/12/13 05:15:35;;;;;;;34.30;5.20;;;;;;;7.78;100.00;99290.00;5038630;28;20482;-88
2023/12/13 05:18:00;;;;;;;31.20;5.60;;;;;;;7.76;100.00;99290.16;5020918;28;20036;-88
2023/12/13 05:20:25;;;;;;;32.97;5.10;;;;;;;7.77;100.00;99291.00;5016872;28;20040;-88
2023/12/13 05:22:51;;;;;;;24.00;5.03;;;;;;;7.80;100.00;99288.00;5038758;28;20033;-88
2023/12/13 05:25:16;;;;;;;35.67;4.60;;;;;;;7.80;100.00;99283.41;5025746;28;20028;-88
2023/12/13 05:27:44;;;;;;;37.60;5.20;;;;;;;7.80;100.00;99279.81;5019088;28;20465;-90
2023/12/13 05:30:10;;;;;;;28.08;5.28;;;;;;;7.82;100.00;99281.41;5028268;28;20056;-90
2023/12/13 05:32:36;;;;;;;23.85;4.65;;;;;;;7.80;100.00;99277.94;5018204;28;20172;-90
2023/12/13 05:35:02;;;;;;;37.45;5.78;;;;;;;7.83;100.00;99284.97;5056312;28;20064;-93
2023/12/13 05:37:27;;;;;;;32.28;6.05;;;;;;;7.84;100.00;99284.84;5014334;28;20033;-87
2023/12/13 05:39:53;;;;;;;35.00;4.70;;;;;;;7.80;100.00;99277.94;5020546;28;20034;-88
2023/12/13 05:42:18;;;;;;;35.33;5.93;;;;;;;7.82;100.00;99278.69;5045964;28;20025;-88
2023/12/13 05:44:44;;;;;;;34.00;5.10;;;;;;;7.86;100.00;99285.56;5014429;28;20036;-87
2023/12/13 05:47:10;;;;;;;28.27;5.65;;;;;;;7.83;100.00;99283.09;5036346;28;20531;-89
2023/12/13 05:49:36;;;;;;;31.60;6.20;;;;;;;7.87;100.00;99284.56;5035566;28;20046;-89
2023/12/13 05:52:01;;;;;;;30.77;5.43;;;;;;;7.87;100.00;99289.13;5038700;28;20086;-86
2023/12/13 05:54:27;;;;;;;28.08;4.70;;;;;;;7.89;100.00;99292.59;5026158;28;20397;-85
2023/12/13 05:56:52;;;;;;;24.77;4.60;;;;;;;7.84;100.00;99289.44;5008200;28;20079;-85
2023/12/13 05:59:18;;;;;;;19.92;4.38;;;;;;;7.83;100.00;99287.72;5011092;28;20030;-85
2023/12/13 06:01:43;;;;;;;32.53;4.82;;;;;;;7.89;100.00;99295.31;5014323;28;20056;-85
2023/12/13 06:04:10;;;;;;;48.55;6.68;;;;;;;7.90;100.00;99295.19;5011538;28;20076;-85
2023/12/13 06:06:35;;;;;;;33.67;6.80;;;;;;;7.89;100.00;99296.16;5032440;28;20063;-85
2023/12/13 06:09:02;;;;;;;26.20;5.22;;;;;;;7.92;100.00;99303.22;5025278;28;20123;-85
2023/12/13 06:11:28;;;;;;;32.92;6.63;;;;;;;7.87;100.00;99300.91;5022996;28;20059;-89
2023/12/13 06:13:54;;;;;;;29.08;5.88;;;;;;;7.93;100.00;99309.50;5014088;28;20479;-89
2023/12/13 06:16:19;;;;;;;34.13;5.22;;;;;;;7.93;100.00;99298.63;5037567;28;20044;-89
2023/12/13 06:18:45;;;;;;;39.67;5.72;;;;;;;7.96;100.00;99304.63;5013557;28;20111;-89
2023/12/13 06:21:11;;;;;;;26.67;5.57;;;;;;;7.97;100.00;99305.47;5029985;28;20052;-89
2023/12/13 06:23:37;;;;;;;27.25;5.63;;;;;;;8.00;100.00;99313.38;5007085;28;20059;-89
2023/12/13 06:26:03;;;;;;;28.25;4.90;;;;;;;7.99;100.00;99314.41;5035081;28;20086;-90
2023/12/13 06:28:29;;;;;;;29.20;5.38;;;;;;;7.99;100.00;99307.06;5034655;28;20029;-90
2023/12/13 06:30:56;;;;;;;26.23;4.50;;;;;;;7.99;100.00;99309.81;5003470;28;20483;-89
2023/12/13 06:33:22;;;;;;;35.97;4.90;;;;;;;8.01;100.00;99309.66;5068934;28;20048;-89
2023/12/13 06:35:48;;;;;;;32.30;5.35;;;;;;;8.02;100.00;99312.25;5025119;28;20045;-90
2023/12/13 06:38:14;;;;;;;23.48;4.90;;;;;;;8.01;100.00;99312.38;5022147;28;20386;-89
2023/12/13 06:40:39;;;;;;;26.48;5.18;;;;;;;8.01;100.00;99315.09;5027075;28;20039;-90
2023/12/13 06:43:05;;;;;;;29.35;4.70;;;;;;;8.01;100.00;99312.38;5038543;28;20021;-88
2023/12/13 06:45:30;;;;;;;27.40;5.05;;;;;;;8.03;100.00;99308.50;5036313;28;20457;-88
2023/12/13 06:47:56;;;;;;;33.35;4.75;;;;;;;8.03;100.00;99308.50;5037390;28;20040;-89
2023/12/13 06:50:21;;;;;;;34.90;5.10;;;;;;;8.03;100.00;99310.38;5020966;28;20040;-89
2023/12/13 06:52:48;;;;;;;31.60;5.68;;;;;;;8.01;100.00;99304.22;5004375;28;20112;-89
2023/12/13 06:55:14;;;;;;;40.90;6.43;;;;;;;8.00;100.00;99307.94;5026682;28;20475;-89
2023/12/13 06:57:40;;;;;;;38.22;6.10;;;;;;;7.99;100.00;99309.81;5009423;28;20107;-90
2023/12/13 07:00:08;;;;;;;38.45;7.38;;;;;;;7.99;100.00;99315.25;5029273;28;20052;-90
2023/12/13 07:02:35;;;;;;;30.90;6.32;;;;;;;7.98;100.00;99304.50;5037329;28;20394;-90
2023/12/13 07:05:00;;;;;;;35.63;6.57;;;;;;;8.03;100.00;99310.38;5035516;28;20134;-90
2023/12/13 07:07:25;;;;;;;29.17;6.00;;;;;;;8.01;100.00;99315.09;5024917;28;20506;-90
2023/12/13 07:09:52;;;;;;;30.63;5.72;;;;;;;8.02;100.00;99309.50;5017899;28;20064;-87
2023/12/13 07:12:20;;;;;;;31.23;6.05;;;;;;;8.00;100.00;99316.97;5023955;28;20108;-90
2023/12/13 07:14:45;;;;;;;35.25;6.78;;;;;;;8.00;100.00;99311.53;5043416;28;20078;-91
2023/12/13 07:17:11;;;;;;;34.80;7.10;;;;;;;8.02;100.00;99322.28;5038241;28;21266;-90
2023/12/13 07:19:36;;;;;;;37.75;7.38;;;;;;;8.02;100.00;99320.41;5045397;28;20045;-86
2023/12/13 07:22:02;;;;;;;33.05;7.65;;;;;;;8.05;100.00;99319.25;5055927;28;20028;-86
2023/12/13 07:24:28;;;;;;;35.50;6.55;;;;;;;8.03;100.00;99324.00;5000906;28;20029;-85
2023/12/13 07:26:56;;;;;;;27.05;5.70;;;;;;;8.04;100.00;99325.72;5036434;28;20602;-91
2023/12/13 07:29:22;;;;;;;29.80;6.40;;;;;;;8.02;100.00;99327.75;5034217;28;20477;-87
2023/12/13 07:31:47;;;;;;;22.35;6.22;;;;;;;7.99;100.00;99325.31;5018339;28;20033;-88
2023/12/13 07:34:13;;;;;;;19.85;6.35;;;;;;;8.02;100.00;99334.03;5021940;28;20033;-87
2023/12/13 07:36:42;;;;;;;20.08;6.57;;;;;;;8.01;100.00;99329.59;4999777;28;20045;-88
2023/12/13 07:39:08;;;;;;;16.95;5.30;;;;;;;8.01;100.00;99331.47;5006306;28;20034;-87
2023/12/13 07:41:35;;;;;;;25.70;5.30;;;;;;;8.01;100.00;99339.63;5028648;28;20474;-87
2023/12/13 07:44:02;;;;;;;31.83;6.88;;;;;;;8.01;100.00;99336.91;5033196;28;20036;-87
2023/12/13 07:46:27;;;;;;;34.88;7.25;;;;;;;8.02;100.00;99341.38;5034265;28;20111;-85
2023/12/13 07:48:56;;;;;;;33.88;6.00;;;;;;;8.01;100.00;99342.38;5061488;28;20379;-87
2023/12/13 07:51:21;;;;;;;30.95;6.75;;;;;;;7.98;100.00;99338.03;5023449;28;20032;-86
2023/12/13 07:53:47;;;;;;;31.85;6.57;;;;;;;7.95;100.00;99342.94;5040578;28;20029;-86
2023/12/13 07:56:13;;;;;;;22.73;6.10;;;;;;;7.90;100.00;99344.22;5021128;28;20458;-87
2023/12/13 07:58:39;;;;;;;28.45;7.18;;;;;;;7.98;100.00;99353.53;5021679;28;20112;-87
2023/12/13 08:01:04;;;;;;;25.38;7.82;;;;;;;7.96;100.00;99341.94;5017121;28;20116;-87
2023/12/13 08:03:30;;;;;;;41.45;8.23;;;;;;;8.01;100.00;99342.38;5031112;28;20025;-86
2023/12/13 08:05:55;;;;;;;27.02;8.30;;;;;;;7.98;100.00;99342.66;5023362;28;20728;-87
2023/12/13 08:08:21;;;;;;;30.23;7.63;;;;;;;7.97;100.00;99338.19;5026953;28;20490;-88
2023/12/13 08:10:46;;;;;;;27.65;8.27;;;;;;;7.99;100.00;99344.38;5039566;28;20071;-87
2023/12/13 08:13:14;;;;;;;33.42;7.88;;;;;;;7.98;100.00;99337.19;5037642;28;20030;-88
2023/12/13 08:15:41;;;;;;;34.58;8.95;;;;;;;8.05;100.00;99341.94;5035051;28;20056;-89
2023/12/13 08:18:06;;;;;;;33.20;8.80;;;;;;;8.06;100.00;99345.50;5028910;28;20028;-87
2023/12/13 08:20:33;;;;;;;31.92;8.75;;;;;;;8.01;100.00;99343.22;5033598;28;20033;-86
2023/12/13 08:23:00;;;;;;;30.83;8.25;;;;;;;8.04;100.00;99352.97;5058075;28;21233;-87
2023/12/13 08:25:26;;;;;;;38.88;9.55;;;;;;;8.02;100.00;99350.41;5012490;28;20028;-87
2023/12/13 08:27:51;;;;;;;33.17;10.95;;;;;;;8.04;100.00;99358.44;5056130;28;20037;-86
2023/12/13 08:30:17;;;;;;;38.88;10.25;;;;;;;8.03;100.00;99354.81;5039467;28;20565;-92
2023/12/13 08:32:42;;;;;;;36.60;10.23;;;;;;;8.06;100.00;99351.81;5027607;28;20090;-92
2023/12/13 08:35:08;;;;;;;34.17;10.85;;;;;;;8.04;100.00;99359.28;5030647;28;20041;-92
2023/12/13 08:37:33;;;;;;;33.97;10.00;;;;;;;8.07;100.00;99358.16;5020965;28;20124;-92
2023/12/13 08:40:00;;;;;;;23.92;8.23;;;;;;;8.06;100.00;99362.72;5024838;28;20032;-92
2023/12/13 08:42:25;;;;;;;26.02;8.73;;;;;;;8.04;100.00;99359.28;5044329;28;20036;-92
2023/12/13 08:44:50;;;;;;;20.88;7.68;;;;;;;8.10;100.00;99357.88;5061736;28;20029;-92
2023/12/13 08:47:19;;;;;;;25.52;7.38;;;;;;;8.09;100.00;99361.59;5049451;28;20070;-93
2023/12/13 08:49:45;;;;;;;29.58;7.25;;;;;;;8.09;100.00;99358.88;5057446;28;20025;-92
2023/12/13 08:52:12;;;;;;;28.40;7.72;;;;;;;8.12;100.00;99366.75;5049884;28;20029;-92
2023/12/13 08:54:37;;;;;;;37.58;7.53;;;;;;;8.15;100.00;99365.59;5056024;28;20040;-93
2023/12/13 08:57:03;;;;;;;21.45;6.55;;;;;;;8.13;100.00;99363.00;5039000;28;20025;-92
2023/12/13 08:59:30;;;;;;;26.63;7.80;;;;;;;8.14;100.00;99363.91;5043345;28;20116;-92
2023/12/13 09:01:56;;;;;;;24.90;8.23;;;;;;;8.19;100.00;99372.50;5026423;28;20040;-92
2023/12/13 09:04:21;;;;;;;28.42;8.02;;;;;;;8.11;100.00;99365.03;5020357;28;20483;-92
2023/12/13 09:06:47;;;;;;;23.73;7.82;;;;;;;8.12;100.00;99369.50;5056528;28;20033;-92
2023/12/13 09:09:12;;;;;;;29.73;8.25;;;;;;;8.16;100.00;99380.97;5045479;28;20032;-92
2023/12/13 09:11:39;;;;;;;33.95;7.70;;;;;;;8.14;100.00;99377.53;5032094;28;20034;-92
2023/12/13 09:14:04;;;;;;;30.92;7.72;;;;;;;8.17;100.00;99378.09;5026020;28;20029;-93
2023/12/13 09:16:29;;;;;;;16.90;6.60;;;;;;;8.15;100.00;99369.19;5047561;28;20166;-92
2023/12/13 09:18:57;;;;;;;25.65;7.50;;;;;;;8.16;100.00;99379.09;5042966;28;20029;-92
2023/12/13 09:21:23;;;;;;;31.60;7.82;;;;;;;8.21;100.00;99375.94;5038078;28;20097;-93
2023/12/13 09:23:48;;;;;;;20.92;7.40;;;;;;;8.22;100.00;99378.53;5018662;28;20112;-92
2023/12/13 09:26:14;;;;;;;32.25;8.35;;;;;;;8.22;100.00;99380.41;5049500;28;20041;-92
2023/12/13 09:28:40;;;;;;;17.58;7.30;;;;;;;8.22;100.00;99380.41;5026339;28;20059;-92
2023/12/13 09:31:07;;;;;;;26.85;6.97;;;;;;;8.21;100.00;99384.13;5032109;28;20115;-92
2023/12/13 09:33:33;;;;;;;17.17;7.22;;;;;;;8.26;100.00;99390.00;5057261;28;20039;-92
2023/12/13 09:36:00;;;;;;;22.92;7.25;;;;;;;8.22;100.00;99389.44;5039705;28;20053;-92
2023/12/13 09:38:26;;;;;;;20.65;6.70;;;;;;;8.21;100.00;99390.41;5037030;28;20077;-92
2023/12/13 09:40:51;;;;;;;23.02;8.10;;;;;;;8.21;100.00;99401.31;5028867;28;20043;-87
2023/12/13 09:43:17;;;;;;;31.73;8.60;;;;;;;8.21;100.00;99395.88;5027770;28;20039;-86
2023/12/13 09:45:45;;;;;;;24.50;8.55;;;;;;;8.25;100.00;99401.94;5053507;28;21256;-87
2023/12/13 09:48:12;;;;;;;22.40;7.90;;;;;;;8.33;100.00;99401.19;5052048;28;20081;-87
2023/12/13 09:50:42;;;;;;;26.95;9.55;;;;;;;8.38;100.00;99404.34;5040970;28;20020;-87
2023/12/13 09:53:09;;;;;;;19.48;9.38;;;;;;;8.44;100.00;99403.81;5029755;28;20434;-87
2023/12/13 09:55:35;;;;;;;27.05;8.52;;;;;;;8.49;100.00;99406.09;5030020;28;20028;-87
2023/12/13 09:58:00;;;;;;;25.10;9.10;;;;;;;8.44;100.00;99403.81;5047114;28;20024;-87
2023/12/13 10:00:26;;;;;;;29.13;9.43;;;;;;;8.36;100.00;99401.78;5035054;28;20129;-87
2023/12/13 10:02:51;;;;;;;30.08;8.43;;;;;;;8.40;100.00;99418.72;5030380;28;20039;-87
2023/12/13 10:05:17;;;;;;;24.73;8.48;;;;;;;8.44;100.00;99414.72;5040840;28;20039;-87
2023/12/13 10:07:43;;;;;;;30.13;8.48;;;;;;;8.40;100.00;99424.19;5058483;28;20507;-87
2023/12/13 10:10:09;;;;;;;27.50;8.23;;;;;;;8.35;100.00;99419.16;5063575;28;20036;-87
2023/12/13 10:12:35;;;;;;;25.50;8.00;;;;;;;8.35;100.00;99421.03;5040640;28;20040;-87
2023/12/13 10:15:11;;;;;;;25.90;7.50;;;;;;;8.33;100.00;99423.00;5042680;28;20029;-87
2023/12/13 10:17:39;;;;;;;25.23;8.10;;;;;;;8.35;100.00;99424.59;5055786;28;20036;-86
2023/12/13 10:20:06;;;;;;;17.33;7.82;;;;;;;8.38;100.00;99427.03;5025726;28;20035;-87
2023/12/13 10:22:32;;;;;;;28.88;9.18;;;;;;;8.35;100.00;99430.06;5058075;28;20025;-87
2023/12/13 10:24:58;;;;;;;28.98;9.13;;;;;;;8.35;100.00;99431.94;5022272;28;20033;-87
2023/12/13 10:27:24;;;;;;;29.67;8.90;;;;;;;8.34;100.00;99431.03;5023850;28;20032;-87
2023/12/13 10:29:52;;;;;;;34.72;9.13;;;;;;;8.35;100.00;99434.66;5050292;28;20067;-86
2023/12/13 10:32:18;;;;;;;30.83;9.35;;;;;;;8.36;100.00;99428.19;5022480;28;20676;-87
2023/12/13 10:34:44;;;;;;;28.40;8.48;;;;;;;8.36;100.00;99428.19;5029136;28;20182;-87
2023/12/13 10:37:13;;;;;;;28.65;8.80;;;;;;;8.32;100.00;99426.75;5059274;28;20032;-86
2023/12/13 10:39:46;;;;;;;28.90;8.80;;;;;;;8.34;100.00;99427.47;5056991;28;20120;-86
2023/12/13 10:42:17;;;;;;;31.77;8.93;;;;;;;8.36;100.00;99426.34;5058381;28;20039;-88
2023/12/13 10:44:45;;;;;;;32.35;8.68;;;;;;;8.35;100.00;99423.75;5028458;28;20032;-87
2023/12/13 10:47:13;;;;;;;40.25;9.52;;;;;;;8.39;100.00;99427.91;5056227;28;20025;-87
2023/12/13 10:49:42;;;;;;;31.17;9.15;;;;;;;8.37;100.00;99430.75;5064673;28;20521;-93
2023/12/13 10:52:08;;;;;;;29.52;9.32;;;;;;;8.34;100.00;99427.47;5074400;28;20048;-93
2023/12/13 10:54:36;;;;;;;28.65;9.15;;;;;;;8.34;100.00;99431.03;5028383;28;20123;-92
2023/12/13 10:57:08;;;;;;;46.67;9.00;;;;;;;8.36;100.00;99428.19;5075008;28;20481;-93
2023/12/13 10:59:36;;;;;;;24.35;9.52;;;;;;;8.32;100.00;99430.34;5054512;28;20033;-93
2023/12/13 11:02:03;;;;;;;31.92;9.45;;;;;;;8.36;100.00;99436.34;5060887;28;20029;-93
2023/12/13 11:04:30;;;;;;;37.70;9.52;;;;;;;8.35;100.00;99431.94;5040342;28;20029;-92
2023/12/13 11:07:02;;;;;;;29.38;10.25;;;;;;;8.32;100.00;99433.06;5040997;28;20116;-93
2023/12/13 11:09:29;;;;;;;32.15;10.43;;;;;;;8.35;100.00;99431.94;5039139;28;20402;-92
2023/12/13 11:11:59;;;;;;;35.22;11.05;;;;;;;8.39;100.00;99433.34;5047373;28;20496;-93
2023/12/13 11:14:28;;;;;;;39.08;11.25;;;;;;;8.46;100.00;99429.06;5058315;28;20086;-93
2023/12/13 11:16:57;;;;;;;32.38;10.60;;;;;;;8.42;100.00;99433.06;5052915;28;20033;-93
2023/12/13 11:19:25;;;;;;;43.65;10.63;;;;;;;8.39;100.00;99436.94;5029967;28;20036;-92
2023/12/13 11:21:51;;;;;;;39.30;12.32;;;;;;;8.40;100.00;99429.63;5024254;28;20040;-92